createdAt,value
2017-08-02T00:00:46.514Z,12.02
2017-08-02T00:03:20.896Z,16.83
2017-08-02T00:05:55.275Z,14.25
2017-08-02T00:08:30.448Z,12.05
2017-08-02T00:11:05.093Z,11.88
2017-08-02T00:13:39.520Z,14.35
2017-08-02T00:16:14.084Z,9.90
2017-08-02T00:18:48.570Z,12.43
2017-08-02T00:21:23.065Z,9.18
2017-08-02T00:23:57.501Z,16.48
2017-08-02T00:26:31.997Z,13.35
2017-08-02T00:29:06.420Z,10.20
2017-08-02T00:31:40.768Z,10.82
2017-08-02T00:34:15.117Z,13.07
2017-08-02T00:36:49.572Z,11.60
2017-08-02T00:39:23.892Z,11.27
2017-08-02T00:41:58.228Z,11.45
2017-08-02T00:44:32.582Z,9.55
2017-08-02T00:47:07.805Z,12.05
2017-08-02T00:49:42.291Z,11.75
2017-08-02T00:52:16.765Z,9.38
2017-08-02T00:54:51.956Z,12.43
2017-08-02T00:57:26.269Z,9.07
2017-08-02T01:00:00.677Z,13.90
2017-08-02T01:02:35.017Z,11.68
2017-08-02T01:05:09.386Z,10.70
2017-08-02T01:07:43.807Z,10.55
2017-08-02T01:10:18.127Z,14.68
2017-08-02T01:12:52.714Z,10.07
2017-08-02T01:15:27.118Z,10.07
2017-08-02T01:18:01.555Z,14.70
2017-08-02T01:20:35.880Z,13.80
2017-08-02T01:23:10.281Z,9.95
2017-08-02T01:25:44.636Z,9.45
2017-08-02T01:28:19.030Z,9.70
2017-08-02T01:30:53.372Z,10.27
2017-08-02T01:33:27.893Z,15.73
2017-08-02T01:36:02.227Z,11.30
2017-08-02T01:38:36.544Z,10.13
2017-08-02T01:41:10.984Z,8.57
2017-08-02T01:43:45.752Z,8.15
2017-08-02T01:46:20.045Z,10.10
2017-08-02T01:48:54.563Z,10.95
2017-08-02T01:51:29.081Z,8.80
2017-08-02T01:54:03.513Z,13.02
2017-08-02T01:56:37.822Z,11.55
2017-08-02T01:59:12.142Z,8.73
2017-08-02T02:01:46.454Z,12.88
2017-08-02T02:04:20.868Z,10.82
2017-08-02T02:06:55.210Z,10.23
2017-08-02T02:09:29.629Z,15.07
2017-08-02T02:12:04.132Z,10.90
2017-08-02T02:14:38.443Z,11.60
2017-08-02T02:17:13.161Z,10.18
2017-08-02T02:19:47.692Z,14.35
2017-08-02T02:22:22.009Z,12.45
2017-08-02T02:24:56.477Z,12.07
2017-08-02T02:27:31.865Z,8.27
2017-08-02T02:30:06.306Z,10.00
2017-08-02T02:32:41.429Z,9.52
2017-08-02T02:35:15.843Z,11.43
2017-08-02T02:37:50.223Z,14.73
2017-08-02T02:40:25.300Z,15.40
2017-08-02T02:42:59.686Z,13.82
2017-08-02T02:45:34.091Z,12.30
2017-08-02T02:48:08.654Z,8.93
2017-08-02T02:50:43.194Z,13.13
2017-08-02T02:53:17.586Z,12.73
2017-08-02T02:55:51.914Z,11.85
2017-08-02T02:58:27.078Z,19.00
2017-08-02T03:01:01.585Z,15.63
2017-08-02T03:03:36.466Z,9.63
2017-08-02T03:06:10.842Z,12.23
2017-08-02T03:08:45.321Z,12.85
2017-08-02T03:11:19.742Z,11.80
2017-08-02T03:13:54.213Z,12.50
2017-08-02T03:16:28.541Z,16.08
2017-08-02T03:19:02.973Z,13.35
2017-08-02T03:21:37.314Z,13.30
2017-08-02T03:24:11.725Z,15.10
2017-08-02T03:26:46.333Z,12.65
2017-08-02T03:29:20.805Z,14.00
2017-08-02T03:31:55.544Z,14.18
2017-08-02T03:34:29.828Z,12.80
2017-08-02T03:37:04.129Z,21.12
2017-08-02T03:39:38.593Z,11.23
2017-08-02T03:42:13.146Z,11.12
2017-08-02T03:44:47.581Z,13.35
2017-08-02T03:47:21.932Z,13.25
2017-08-02T03:49:56.362Z,12.25
2017-08-02T03:52:30.922Z,13.82
2017-08-02T03:55:05.393Z,13.00
2017-08-02T03:57:39.813Z,10.18
2017-08-02T04:00:14.254Z,10.40
2017-08-02T04:02:48.689Z,9.63
2017-08-02T04:05:23.186Z,13.23
2017-08-02T04:07:57.584Z,12.50
2017-08-02T04:10:31.893Z,14.05
2017-08-02T04:13:06.536Z,13.82
2017-08-02T04:15:41.104Z,24.25
2017-08-02T04:18:15.522Z,16.25
2017-08-02T04:20:49.913Z,15.55
2017-08-02T04:23:24.560Z,17.65
2017-08-02T04:25:58.917Z,22.65
2017-08-02T04:28:33.253Z,14.15
2017-08-02T04:31:07.740Z,15.30
2017-08-02T04:33:42.233Z,16.08
2017-08-02T04:36:16.760Z,15.88
2017-08-02T04:38:51.218Z,24.15
2017-08-02T04:41:25.669Z,15.30
2017-08-02T04:43:59.993Z,14.52
2017-08-02T04:46:34.519Z,14.60
2017-08-02T04:49:09.062Z,15.73
2017-08-02T04:51:43.514Z,16.30
2017-08-02T04:54:17.952Z,19.50
2017-08-02T04:56:52.508Z,14.63
2017-08-02T04:59:26.913Z,19.50
2017-08-02T05:02:01.430Z,14.48
2017-08-02T05:04:35.915Z,14.98
2017-08-02T05:07:10.324Z,14.77
2017-08-02T05:09:44.721Z,15.20
2017-08-02T05:12:19.267Z,14.15
2017-08-02T05:14:53.769Z,16.92
2017-08-02T05:17:28.984Z,17.17
2017-08-02T05:20:04.227Z,15.05
2017-08-02T05:22:39.333Z,13.77
2017-08-02T05:25:13.798Z,18.02
2017-08-02T05:27:48.175Z,15.00
2017-08-02T05:30:22.473Z,14.38
2017-08-02T05:32:56.912Z,13.32
2017-08-02T05:35:31.467Z,12.23
2017-08-02T05:38:05.953Z,10.95
2017-08-02T05:40:40.378Z,12.05
2017-08-02T05:43:14.744Z,12.13
2017-08-02T05:45:50.549Z,12.00
2017-08-02T05:48:25.694Z,11.68
2017-08-02T05:51:00.140Z,14.80
2017-08-02T05:53:34.557Z,12.77
2017-08-02T05:56:09.230Z,17.87
2017-08-02T05:58:43.982Z,14.73
2017-08-02T06:01:18.453Z,16.55
2017-08-02T06:03:52.755Z,11.55
2017-08-02T06:06:27.623Z,14.57
2017-08-02T06:09:02.123Z,15.05
2017-08-02T06:11:37.210Z,16.08
2017-08-02T06:14:11.569Z,14.68
2017-08-02T06:16:45.986Z,17.87
2017-08-02T06:19:20.351Z,10.25
2017-08-02T06:21:54.737Z,13.93
2017-08-02T06:24:29.263Z,10.52
2017-08-02T06:27:03.880Z,8.77
2017-08-02T06:29:38.376Z,11.12
2017-08-02T06:32:12.887Z,13.38
2017-08-02T06:34:47.361Z,10.63
2017-08-02T06:37:21.668Z,14.65
2017-08-02T06:39:56.410Z,15.95
2017-08-02T06:42:30.892Z,15.35
2017-08-02T06:45:05.542Z,11.73
2017-08-02T06:47:40.594Z,11.25
2017-08-02T06:50:14.945Z,10.68
2017-08-02T06:52:49.409Z,12.63
2017-08-02T06:55:23.888Z,11.35
2017-08-02T06:57:58.981Z,9.32
2017-08-02T07:00:33.530Z,11.32
2017-08-02T07:03:07.959Z,13.13
2017-08-02T07:05:42.400Z,8.13
2017-08-02T07:08:16.884Z,7.12
2017-08-02T07:10:52.025Z,9.50
2017-08-02T07:13:26.585Z,8.45
2017-08-02T07:16:01.084Z,9.88
2017-08-02T07:18:35.552Z,6.65
2017-08-02T07:21:10.019Z,9.13
2017-08-02T07:23:44.472Z,5.70
2017-08-02T07:26:18.853Z,9.75
2017-08-02T07:28:53.258Z,5.78
2017-08-02T07:31:27.736Z,5.25
2017-08-02T07:34:02.909Z,5.43
2017-08-02T07:36:37.253Z,7.80
2017-08-02T07:39:11.637Z,10.00
2017-08-02T07:41:46.069Z,5.72
2017-08-02T07:44:21.306Z,5.35
2017-08-02T07:46:56.675Z,9.40
2017-08-02T07:49:31.889Z,7.87
2017-08-02T07:52:06.237Z,7.57
2017-08-02T07:54:40.544Z,7.57
2017-08-02T07:57:14.964Z,8.73
2017-08-02T07:59:49.487Z,4.82
2017-08-02T08:02:24.217Z,4.87
2017-08-02T08:04:59.516Z,4.62
2017-08-02T08:07:34.060Z,4.27
2017-08-02T08:10:08.385Z,6.03
2017-08-02T08:12:43.013Z,8.30
2017-08-02T08:15:17.501Z,4.70
2017-08-02T08:17:51.931Z,3.30
2017-08-02T08:20:26.261Z,4.20
2017-08-02T08:23:00.940Z,7.07
2017-08-02T08:25:35.413Z,4.80
2017-08-02T08:28:09.810Z,6.90
2017-08-02T08:30:44.217Z,6.50
2017-08-02T08:33:19.632Z,4.77
2017-08-02T08:35:53.934Z,6.27
2017-08-02T08:38:32.783Z,4.43
2017-08-02T08:41:07.780Z,3.67
2017-08-02T08:43:42.264Z,8.60
2017-08-02T08:46:16.698Z,3.60
2017-08-02T08:48:51.069Z,4.63
2017-08-02T08:51:25.381Z,6.70
2017-08-02T08:53:59.957Z,5.13
2017-08-02T08:56:34.497Z,5.20
2017-08-02T08:59:09.600Z,6.70
2017-08-02T09:01:44.269Z,3.17
2017-08-02T09:04:18.597Z,6.20
2017-08-02T09:06:53.049Z,6.77
2017-08-02T09:09:27.405Z,4.97
2017-08-02T09:12:01.789Z,5.40
2017-08-02T09:14:37.025Z,8.50
2017-08-02T09:17:11.456Z,4.93
2017-08-02T09:19:45.768Z,5.90
2017-08-02T09:22:20.126Z,4.60
2017-08-02T09:24:54.430Z,4.73
2017-08-02T09:27:28.807Z,3.93
2017-08-02T09:30:03.239Z,9.50
2017-08-02T09:32:37.685Z,5.30
2017-08-02T09:35:12.108Z,7.30
2017-08-02T09:37:46.669Z,4.30
2017-08-02T09:40:21.932Z,3.03
2017-08-02T09:42:56.392Z,7.53
2017-08-02T09:45:30.740Z,9.50
2017-08-02T09:48:05.100Z,4.30
2017-08-02T09:50:39.542Z,6.33
2017-08-02T09:53:13.905Z,3.93
2017-08-02T09:55:48.321Z,3.27
2017-08-02T09:58:22.805Z,3.77
2017-08-02T10:00:58.016Z,5.40
2017-08-02T10:03:32.601Z,5.33
2017-08-02T10:06:07.081Z,4.83
2017-08-02T10:08:41.592Z,4.50
2017-08-02T10:11:16.102Z,4.73
2017-08-02T10:13:50.657Z,3.10
2017-08-02T10:16:25.153Z,2.90
2017-08-02T10:18:59.585Z,6.03
2017-08-02T10:21:33.857Z,3.33
2017-08-02T10:24:08.324Z,4.53
2017-08-02T10:26:42.673Z,5.43
2017-08-02T10:29:17.156Z,4.10
2017-08-02T10:31:51.585Z,5.03
2017-08-02T10:34:26.117Z,4.23
2017-08-02T10:37:00.754Z,4.70
2017-08-02T10:39:35.082Z,8.60
2017-08-02T10:42:10.253Z,6.03
2017-08-02T10:44:44.795Z,4.30
2017-08-02T10:47:19.204Z,5.30
2017-08-02T10:49:53.851Z,6.13
2017-08-02T10:52:28.121Z,5.23
2017-08-02T10:55:02.605Z,8.23
2017-08-02T10:57:37.058Z,3.50
2017-08-02T11:00:11.399Z,8.03
2017-08-02T11:02:45.745Z,5.10
2017-08-02T11:05:20.268Z,5.10
2017-08-02T11:07:54.776Z,12.23
2017-08-02T11:10:29.156Z,8.33
2017-08-02T11:13:03.607Z,5.27
2017-08-02T11:15:38.205Z,5.70
2017-08-02T11:18:12.671Z,4.33
2017-08-02T11:20:47.012Z,5.57
2017-08-02T11:23:21.347Z,4.17
2017-08-02T11:25:55.870Z,5.30
2017-08-02T11:28:30.329Z,5.77
2017-08-02T11:31:04.653Z,5.63
2017-08-02T11:33:39.220Z,9.27
2017-08-02T11:36:14.554Z,5.80
2017-08-02T11:38:48.904Z,4.30
2017-08-02T11:41:23.233Z,7.50
2017-08-02T11:43:57.657Z,3.63
2017-08-02T11:46:31.993Z,5.97
2017-08-02T11:49:06.489Z,5.70
2017-08-02T11:51:41.205Z,7.87
2017-08-02T11:54:15.569Z,6.17
2017-08-02T11:56:50.017Z,4.20
2017-08-02T11:59:24.500Z,4.60
2017-08-02T12:01:58.888Z,5.33
2017-08-02T12:04:33.437Z,4.03
2017-08-02T12:07:07.875Z,4.20
2017-08-02T12:09:42.282Z,5.30
2017-08-02T12:12:16.752Z,4.67
2017-08-02T12:14:51.814Z,7.10
2017-08-02T12:17:26.233Z,5.80
2017-08-02T12:20:00.770Z,4.93
2017-08-02T12:22:35.172Z,10.80
2017-08-02T12:25:09.650Z,6.53
2017-08-02T12:27:45.641Z,5.90
2017-08-02T12:30:20.229Z,6.00
2017-08-02T12:32:54.609Z,6.33
2017-08-02T12:35:28.986Z,6.83
2017-08-02T12:38:03.337Z,6.67
2017-08-02T12:40:37.877Z,8.30
2017-08-02T12:43:12.289Z,5.17
2017-08-02T12:45:46.810Z,8.13
2017-08-02T12:48:21.585Z,6.20
2017-08-02T12:50:56.056Z,7.63
2017-08-02T12:53:30.482Z,9.53
2017-08-02T12:56:04.888Z,7.40
2017-08-02T12:58:39.374Z,7.23
2017-08-02T13:01:13.697Z,5.70
2017-08-02T13:03:48.275Z,6.20
2017-08-02T13:06:22.700Z,6.10
2017-08-02T13:08:57.132Z,6.20
2017-08-02T13:11:31.425Z,10.63
2017-08-02T13:14:05.785Z,6.83
2017-08-02T13:16:40.100Z,9.00
2017-08-02T13:19:14.407Z,6.40
2017-08-02T13:21:48.735Z,7.17
2017-08-02T13:24:23.200Z,11.40
2017-08-02T13:26:57.520Z,7.20
2017-08-02T13:29:32.749Z,8.23
2017-08-02T13:32:07.070Z,4.50
2017-08-02T13:34:41.497Z,8.53
2017-08-02T13:37:15.922Z,8.80
2017-08-02T13:39:51.132Z,4.60
2017-08-02T13:42:25.690Z,4.47
2017-08-02T13:45:00.108Z,4.30
2017-08-02T13:47:34.464Z,3.83
2017-08-02T13:50:08.925Z,4.50
2017-08-02T13:52:43.340Z,5.60
2017-08-02T13:55:17.830Z,3.77
2017-08-02T13:57:52.373Z,4.20
2017-08-02T14:00:26.780Z,3.87
2017-08-02T14:03:01.605Z,4.20
2017-08-02T14:05:36.037Z,3.00
2017-08-02T14:08:11.345Z,14.10
2017-08-02T14:10:45.948Z,2.80
2017-08-02T14:13:21.112Z,4.17
2017-08-02T14:15:56.461Z,3.03
2017-08-02T14:18:30.893Z,3.90
2017-08-02T14:21:05.348Z,8.27
2017-08-02T14:23:39.809Z,5.27
2017-08-02T14:26:14.597Z,4.00
2017-08-02T14:28:49.018Z,4.53
2017-08-02T14:31:24.362Z,5.40
2017-08-02T14:33:58.790Z,7.20
2017-08-02T14:36:33.130Z,5.87
2017-08-02T14:39:07.583Z,4.77
2017-08-02T14:41:43.001Z,5.53
2017-08-02T14:44:17.260Z,6.27
2017-08-02T14:46:51.737Z,5.70
2017-08-02T14:49:26.784Z,5.13
2017-08-02T14:52:03.957Z,5.43
2017-08-02T14:54:39.008Z,6.60
2017-08-02T14:57:13.492Z,4.77
2017-08-02T14:59:48.046Z,5.10
2017-08-02T15:02:23.100Z,5.63
2017-08-02T15:04:57.565Z,7.43
2017-08-02T15:07:31.865Z,5.80
2017-08-02T15:10:06.186Z,5.00
2017-08-02T15:12:40.461Z,5.93
2017-08-02T15:15:15.016Z,8.07
2017-08-02T15:17:49.488Z,5.60
2017-08-02T15:20:23.989Z,6.87
2017-08-02T15:22:58.401Z,6.30
2017-08-02T15:25:32.779Z,6.10
2017-08-02T15:28:07.202Z,7.03
2017-08-02T15:30:42.912Z,7.37
2017-08-02T15:33:17.294Z,6.87
2017-08-02T15:35:51.821Z,7.70
2017-08-02T15:38:26.113Z,6.97
2017-08-02T15:41:00.705Z,7.20
2017-08-02T15:43:35.202Z,6.77
2017-08-02T15:46:09.770Z,5.83
2017-08-02T15:48:44.461Z,6.17
2017-08-02T15:51:18.997Z,8.03
2017-08-02T15:53:53.376Z,7.03
2017-08-02T15:56:27.855Z,6.37
2017-08-02T15:59:02.146Z,6.40
2017-08-02T16:01:36.633Z,8.47
2017-08-02T16:04:10.981Z,5.37
2017-08-02T16:06:45.585Z,6.83
2017-08-02T16:09:19.949Z,6.90
2017-08-02T16:11:54.594Z,6.90
2017-08-02T16:14:29.044Z,8.40
2017-08-02T16:17:03.512Z,7.23
2017-08-02T16:19:37.801Z,15.10
2017-08-02T16:22:12.214Z,9.83
2017-08-02T16:24:46.617Z,8.20
2017-08-02T16:27:20.964Z,11.27
2017-08-02T16:29:55.254Z,10.33
2017-08-02T16:32:29.810Z,12.30
2017-08-02T16:35:04.356Z,13.77
2017-08-02T16:37:38.908Z,13.77
2017-08-02T16:40:13.286Z,15.23
2017-08-02T16:42:47.627Z,14.47
2017-08-02T16:45:22.100Z,15.37
2017-08-02T16:47:56.592Z,15.07
2017-08-02T16:50:30.947Z,12.40
2017-08-02T16:53:05.684Z,15.50
2017-08-02T16:55:40.920Z,13.47
2017-08-02T16:58:15.401Z,14.68
2017-08-02T17:00:50.386Z,13.87
2017-08-02T17:03:24.913Z,14.87
2017-08-02T17:05:59.417Z,14.53
2017-08-02T17:08:33.986Z,15.93
2017-08-02T17:11:08.382Z,14.93
2017-08-02T17:13:43.502Z,15.67
2017-08-02T17:16:17.981Z,12.87
2017-08-02T17:18:52.618Z,15.13
2017-08-02T17:21:27.092Z,12.43
2017-08-02T17:24:01.544Z,14.60
2017-08-02T17:26:35.974Z,12.33
2017-08-02T17:29:10.698Z,10.97
2017-08-02T17:31:46.017Z,12.77
2017-08-02T17:34:20.529Z,12.10
2017-08-02T17:36:54.990Z,10.90
2017-08-02T17:39:29.428Z,12.90
2017-08-02T17:42:03.816Z,10.17
2017-08-02T17:44:38.281Z,11.07
2017-08-02T17:47:13.665Z,10.60
2017-08-02T17:49:48.084Z,10.67
2017-08-02T17:52:22.836Z,7.47
2017-08-02T17:54:57.254Z,7.73
2017-08-02T17:57:31.671Z,6.13
2017-08-02T18:00:05.918Z,5.87
2017-08-02T18:02:40.215Z,6.37
2017-08-02T18:05:14.624Z,5.73
2017-08-02T18:07:49.965Z,4.93
2017-08-02T18:10:24.310Z,5.95
2017-08-02T18:12:58.658Z,9.82
2017-08-02T18:15:33.341Z,7.20
2017-08-02T18:18:07.690Z,6.20
2017-08-02T18:20:42.204Z,6.10
2017-08-02T18:23:16.866Z,8.00
2017-08-02T18:25:52.035Z,5.45
2017-08-02T18:28:26.493Z,8.47
2017-08-02T18:31:01.689Z,6.27
2017-08-02T18:33:36.190Z,6.37
2017-08-02T18:36:10.562Z,8.47
2017-08-02T18:38:45.066Z,5.90
2017-08-02T18:41:19.506Z,5.00
2017-08-02T18:43:54.053Z,4.80
2017-08-02T18:46:28.328Z,7.15
2017-08-02T18:49:02.641Z,5.40
2017-08-02T18:51:37.776Z,6.20
2017-08-02T18:54:12.269Z,5.20
2017-08-02T18:56:46.692Z,7.45
2017-08-02T18:59:21.094Z,5.30
2017-08-02T19:01:55.596Z,6.70
2017-08-02T19:04:30.064Z,6.18
2017-08-02T19:07:04.567Z,6.72
2017-08-02T19:09:38.913Z,9.63
2017-08-02T19:12:13.345Z,7.00
2017-08-02T19:14:47.865Z,7.43
2017-08-02T19:17:22.348Z,7.45
2017-08-02T19:19:56.689Z,8.15
2017-08-02T19:22:30.990Z,8.73
2017-08-02T19:25:05.350Z,7.57
2017-08-02T19:27:39.811Z,6.87
2017-08-02T19:30:14.434Z,8.18
2017-08-02T19:32:48.881Z,7.07
2017-08-02T19:35:23.381Z,7.43
2017-08-02T19:37:57.858Z,8.75
2017-08-02T19:40:32.387Z,7.47
2017-08-02T19:43:06.776Z,7.37
2017-08-02T19:45:41.200Z,9.00
2017-08-02T19:48:15.633Z,9.07
2017-08-02T19:50:49.998Z,8.88
2017-08-02T19:53:24.439Z,15.10
2017-08-02T19:55:58.915Z,10.18
2017-08-02T19:58:33.362Z,8.68
2017-08-02T20:01:07.900Z,10.60
2017-08-02T20:03:42.935Z,8.52
2017-08-02T20:06:17.504Z,8.32
2017-08-02T20:08:52.592Z,10.52
2017-08-02T20:11:27.053Z,7.20
2017-08-02T20:14:01.393Z,8.05
2017-08-02T20:16:35.781Z,8.48
2017-08-02T20:19:10.185Z,15.93
2017-08-02T20:21:44.633Z,8.82
2017-08-02T20:24:19.817Z,10.23
2017-08-02T20:26:54.176Z,9.40
2017-08-02T20:29:28.545Z,7.65
2017-08-02T20:32:03.970Z,6.87
2017-08-02T20:34:38.420Z,7.93
2017-08-02T20:37:12.889Z,8.55
2017-08-02T20:39:47.177Z,7.03
2017-08-02T20:42:21.618Z,6.78
2017-08-02T20:44:55.994Z,7.85
2017-08-02T20:47:30.589Z,8.02
2017-08-02T20:50:04.949Z,7.15
2017-08-02T20:52:39.542Z,7.28
2017-08-02T20:55:13.877Z,6.85
2017-08-02T20:57:48.405Z,9.10
2017-08-02T21:00:22.785Z,7.22
2017-08-02T21:02:57.881Z,7.15
2017-08-02T21:05:32.409Z,9.25
2017-08-02T21:08:06.933Z,7.18
2017-08-02T21:10:41.234Z,6.90
2017-08-02T21:13:15.661Z,6.28
2017-08-02T21:15:50.112Z,8.45
2017-08-02T21:18:24.622Z,7.90
2017-08-02T21:20:58.936Z,7.53
2017-08-02T21:23:33.281Z,6.93
2017-08-02T21:26:07.564Z,7.25
2017-08-02T21:28:41.960Z,7.28
2017-08-02T21:31:16.288Z,12.07
2017-08-02T21:33:50.721Z,7.05
2017-08-02T21:36:25.037Z,7.30
2017-08-02T21:38:59.365Z,7.70
2017-08-02T21:41:33.645Z,7.25
2017-08-02T21:44:07.996Z,9.88
2017-08-02T21:46:42.337Z,8.68
2017-08-02T21:49:16.651Z,9.15
2017-08-02T21:51:51.260Z,9.73
2017-08-02T21:54:25.794Z,8.07
2017-08-02T21:57:00.096Z,9.70
2017-08-02T21:59:34.389Z,9.30
2017-08-02T22:02:09.065Z,14.20
2017-08-02T22:04:43.460Z,9.32
2017-08-02T22:07:17.787Z,7.25
2017-08-02T22:09:52.068Z,7.12
2017-08-02T22:12:26.389Z,7.90
2017-08-02T22:15:00.697Z,7.68
2017-08-02T22:17:35.060Z,8.73
2017-08-02T22:20:09.420Z,7.85
2017-08-02T22:22:43.978Z,9.18
2017-08-02T22:25:18.269Z,9.50
2017-08-02T22:27:52.608Z,10.27
2017-08-02T22:30:27.052Z,10.73
2017-08-02T22:33:01.720Z,10.02
2017-08-02T22:35:36.950Z,13.80
2017-08-02T22:38:11.421Z,10.73
2017-08-02T22:40:45.857Z,9.68
2017-08-02T22:43:20.223Z,10.93
2017-08-02T22:45:55.351Z,9.82
2017-08-02T22:48:29.734Z,10.65
2017-08-02T22:51:04.266Z,11.32
2017-08-02T22:53:38.770Z,12.90
2017-08-02T22:56:13.245Z,12.55
2017-08-02T22:58:48.556Z,14.87
2017-08-02T23:01:23.809Z,13.02
2017-08-02T23:03:58.572Z,14.80
2017-08-02T23:06:32.916Z,12.20
2017-08-02T23:09:07.233Z,12.48
2017-08-02T23:11:41.526Z,12.32
2017-08-02T23:14:16.012Z,12.55
2017-08-02T23:16:50.386Z,16.65
2017-08-02T23:19:24.940Z,11.73
2017-08-02T23:22:00.373Z,12.57
2017-08-02T23:24:34.709Z,12.40
2017-08-02T23:27:09.217Z,11.32
2017-08-02T23:29:43.526Z,11.65
2017-08-02T23:32:18.057Z,13.65
2017-08-02T23:34:53.194Z,10.60
2017-08-02T23:37:27.936Z,14.57
2017-08-02T23:40:02.328Z,12.07
2017-08-02T23:42:36.910Z,9.80
2017-08-02T23:45:11.422Z,11.43
2017-08-02T23:47:45.841Z,15.52
2017-08-02T23:50:20.238Z,12.60
2017-08-02T23:52:54.864Z,14.87
2017-08-02T23:55:29.284Z,14.52
2017-08-02T23:58:03.594Z,14.13
